Date,TemperatureHighF,TemperatureAvgF,TemperatureLowF,DewpointHighF,DewpointAvgF,DewpointLowF,HumidityHigh,HumidityAvg,HumidityLow,PressureMaxIn,PressureMinIn,WindSpeedMaxMPH,WindSpeedAvgMPH,GustSpeedMaxMPH,PrecipitationSumIn
2013-1-1,37.9,32.5,19.7,30.5,24.1,11.2,79,71,64,29.93,29.73,22,1,22,0.01
2013-1-2,28.1,21.0,9.1,19.5,14.2,6.1,89,75,62,30.09,29.90,13,0,13,0.00
2013-1-3,27.7,19.1,7.6,19.3,11.6,2.7,88,73,62,30.12,29.97,14,0,14,0.00
2013-1-4,37.7,30.5,21.5,27.7,23.8,17.3,92,76,65,29.97,29.81,20,1,20,0.03
2013-1-5,40.9,32.0,22.8,29.0,24.8,20.3,92,75,61,30.20,29.86,23,1,23,0.06
2013-1-6,43.4,31.7,24.3,33.4,27.8,22.0,95,86,67,30.16,29.88,12,0,12,0.08
2013-1-7,39.2,30.1,19.7,31.5,24.8,17.2,100,82,58,30.34,29.95,13,0,13,0.02
2013-1-8,46.8,31.8,17.3,34.5,26.9,15.7,100,83,61,30.35,30.24,17,1,17,0.06
2013-1-9,43.6,33.7,20.8,38.0,30.5,19.6,96,88,72,30.33,30.02,17,1,17,0.03
2013-1-10,44.4,38.7,27.6,36.8,28.8,24.8,90,68,54,30.49,30.07,25,2,25,0.00
2013-1-11,37.3,31.7,24.2,36.2,29.6,22.6,99,92,78,30.47,30.08,4,0,4,0.35
2013-1-12,43.8,40.2,36.3,43.8,40.1,36.0,100,100,99,30.11,30.03,3,0,3,0.12
2013-1-13,46.9,42.9,38.0,46.8,42.9,38.0,100,100,99,30.09,29.93,10,0,10,0.01
2013-1-14,55.4,45.5,35.6,53.2,42.0,29.6,100,88,68,30.23,29.82,16,1,16,0.03
2013-1-15,37.8,35.0,32.1,31.5,28.9,26.9,89,78,71,30.28,30.15,7,0,7,0.02
2013-1-16,34.4,32.4,30.1,33.8,31.3,26.5,100,96,74,30.17,29.74,5,0,5,0.00
2013-1-17,41.1,34.5,28.0,34.0,29.9,18.1,98,84,66,30.05,29.80,18,1,18,0.34
2013-1-18,28.0,23.4,18.8,18.8,11.9,6.7,75,61,48,30.41,29.97,23,1,23,0.00
2013-1-19,44.9,34.6,21.2,32.5,26.5,13.3,90,72,60,30.33,29.83,16,1,16,0.11
2013-1-20,50.6,40.4,27.7,35.7,28.5,14.7,89,64,40,29.92,29.55,23,3,23,0.00
2013-1-21,28.9,24.7,19.2,23.6,17.2,11.4,94,74,54,30.03,29.72,6,0,10,0.00
2013-1-22,21.6,18.0,11.4,18.6,7.5,0.2,94,65,47,30.08,29.72,24,1,24,0.00
2013-1-23,17.5,11.0,3.7,2.8,0.7,-1.4,82,63,48,30.14,30.06,17,1,17,0.00
2013-1-24,20.7,11.4,0.7,4.4,1.1,-2.6,87,65,43,30.27,30.08,25,2,25,0.00
2013-1-25,22.2,16.9,10.3,15.3,6.8,3.3,89,65,47,30.32,30.00,11,0,11,0.00
2013-1-26,24.3,17.1,8.7,13.8,9.3,6.2,91,72,52,30.27,29.97,20,1,20,0.00
2013-1-27,32.2,22.3,14.3,13.1,9.2,4.6,82,59,32,30.43,30.27,17,1,17,0.00
2013-1-28,32.8,25.9,16.2,32.3,22.8,11.0,98,88,70,30.42,29.92,4,0,4,0.00
2013-1-29,35.0,33.0,29.8,34.5,32.4,29.3,100,98,95,30.10,29.92,3,0,3,0.20
2013-1-30,56.4,45.4,34.4,56.4,45.3,34.1,100,100,99,30.06,29.32,20,1,20,0.05
2013-1-31,59.2,45.2,29.4,59.2,37.3,17.9,100,75,48,29.62,28.93,33,5,33,0.92
2013-2-1,29.4,27.1,25.5,18.6,16.2,14.0,70,63,56,29.77,29.62,21,2,21,0.00
2013-4-7,53.9,49.0,45.2,43.9,42.0,36.6,94,78,54,30.04,29.94,5,2,10,0.00
2013-4-8,69.4,53.6,37.0,46.8,42.7,36.4,99,71,41,30.00,29.91,4,1,7,0.00
2013-4-9,74.2,61.6,48.4,56.7,50.0,45.6,97,68,43,29.94,29.80,7,2,20,0.00
2013-4-10,67.9,56.6,48.9,57.2,51.5,44.1,99,84,63,29.88,29.75,3,0,6,0.28
2013-4-11,56.2,51.3,43.6,53.2,45.8,32.7,100,83,50,30.02,29.72,3,1,7,0.00
2013-4-12,43.3,39.5,37.1,39.5,37.4,35.6,98,93,74,30.03,29.69,3,1,11,0.42
2013-4-13,54.4,45.1,35.9,41.2,38.4,34.8,98,79,57,29.87,29.68,3,1,7,0.09
2013-4-14,53.0,45.5,35.4,40.0,34.9,30.7,89,68,48,30.17,29.86,6,1,12,0.00
2013-4-15,57.2,44.9,33.3,38.7,34.5,30.3,90,69,47,30.33,30.16,2,0,5,0.00
2013-4-16,62.9,50.6,36.4,53.9,46.3,33.7,95,86,68,30.32,30.03,4,1,7,0.03
2013-4-17,66.5,56.9,46.1,54.2,43.0,37.4,97,63,37,30.24,30.03,16,1,16,0.02
2013-4-18,58.8,50.2,37.8,49.5,40.9,34.8,93,72,47,30.30,30.05,14,2,14,0.00
2013-4-19,68.8,60.5,51.6,64.4,59.0,49.3,100,95,85,30.05,29.56,5,2,23,0.02
2013-4-20,62.7,50.6,40.5,62.3,41.5,29.7,100,74,41,30.21,29.56,6,2,25,0.32
2013-4-21,54.8,43.1,33.4,34.7,27.2,21.7,76,55,35,30.57,30.21,4,1,9,0.00
2013-4-22,56.6,44.9,32.6,39.3,34.1,29.0,94,68,41,30.63,30.45,3,1,6,0.00
2013-4-23,46.0,41.6,37.0,41.4,37.2,32.1,91,85,74,30.46,30.03,3,1,11,0.00
2013-4-24,73.4,54.2,42.8,54.3,47.1,40.4,94,79,49,30.03,29.75,3,1,11,0.00
2013-4-25,62.7,53.1,41.1,52.1,39.3,33.0,98,63,34,30.20,29.77,4,1,11,0.03
2013-4-26,66.2,50.8,33.1,41.8,35.5,30.8,92,60,35,30.33,30.20,4,1,7,0.00
2013-4-27,68.6,53.7,35.3,43.6,37.7,31.7,88,57,31,30.34,30.20,3,1,7,0.00
2013-4-28,68.0,54.9,38.7,48.0,40.9,35.4,93,62,41,30.25,30.14,3,1,9,0.00
2013-4-29,58.4,53.9,48.2,49.6,44.4,36.6,89,71,53,30.18,30.14,3,1,5,0.00
2013-4-30,67.7,55.8,42.6,45.4,38.8,29.5,95,57,30,30.27,30.15,3,0,6,0.00
2013-5-1,70.6,53.9,35.2,50.0,41.1,32.5,92,65,33,30.41,30.27,3,0,6,0.00
2013-5-2,78.4,59.0,38.8,50.5,44.9,38.0,98,65,33,30.39,30.22,2,0,6,0.00
2013-5-3,67.7,57.1,47.4,48.2,42.9,38.3,90,60,41,30.40,30.26,3,1,5,0.00
2013-5-4,71.6,54.1,39.5,50.9,44.9,38.7,99,74,41,30.31,30.15,4,0,11,0.00
2013-5-5,67.4,50.0,34.0,49.0,41.4,33.0,98,75,44,30.24,30.13,2,0,6,0.00
2013-5-6,70.9,55.0,39.7,55.6,48.4,38.4,98,80,52,30.22,30.06,3,0,5,0.00
2013-5-7,75.8,60.3,42.5,61.9,53.4,41.9,99,80,48,30.10,30.01,1,0,4,0.00
2013-5-8,68.3,59.9,54.9,63.6,59.0,54.2,100,97,82,30.06,29.93,3,0,9,0.22
2013-5-9,61.8,56.9,51.9,60.4,56.7,51.9,100,99,93,29.95,29.81,1,0,3,1.36
2013-5-10,78.8,63.4,47.0,62.9,56.4,47.0,100,80,51,29.91,29.82,4,0,11,0.01
2013-5-11,64.2,61.1,58.4,63.6,60.5,56.8,100,98,87,29.82,29.61,3,0,5,0.34
2013-5-12,68.0,59.1,49.0,60.0,49.6,32.3,100,74,36,29.80,29.55,6,1,12,0.05
2013-5-13,55.0,47.7,38.1,37.2,35.0,33.3,86,62,45,30.01,29.80,4,1,17,0.00
2013-5-14,59.0,47.6,36.0,37.9,34.8,32.7,89,64,39,30.02,29.93,3,1,6,0.00
2013-5-15,62.9,48.8,32.5,55.8,44.4,31.5,98,86,58,30.01,29.61,2,0,7,0.01
2013-5-16,81.8,63.4,43.7,57.6,49.1,43.4,100,67,30,29.74,29.61,5,1,12,0.00
2013-5-17,70.9,59.0,48.1,49.7,46.3,44.4,88,65,42,30.13,29.74,4,1,15,0.00
2013-5-18,69.5,55.7,41.1,53.4,48.2,40.2,98,78,52,30.23,30.14,4,0,7,0.00
2013-5-19,57.5,54.1,49.7,56.2,53.6,48.8,100,98,94,30.27,30.11,0,0,1,0.10
2013-5-20,81.9,66.5,55.8,70.2,63.0,55.8,100,90,65,30.11,29.86,3,1,6,0.01
2013-5-21,88.3,72.8,58.4,74.6,67.7,58.4,100,86,60,29.89,29.73,4,0,8,0.00
2013-5-22,76.8,65.1,55.9,71.9,63.6,55.4,100,95,84,29.86,29.75,3,0,5,0.48
2013-5-23,70.6,66.6,64.2,69.2,66.3,64.2,100,99,95,29.81,29.68,2,0,5,2.50
2013-5-24,64.4,56.6,45.2,64.4,55.6,43.9,100,96,85,29.82,29.57,4,1,11,0.25
2013-5-25,47.5,45.0,43.9,45.8,43.6,41.6,98,95,90,29.84,29.75,3,1,10,0.53
2013-5-26,61.0,51.2,42.8,46.2,43.3,41.0,95,76,55,30.09,29.79,7,3,15,0.01
2013-5-27,74.0,56.8,38.8,50.4,45.0,38.3,100,70,36,30.14,30.02,5,1,9,0.00
2013-5-28,70.5,55.9,43.1,58.0,51.1,42.6,100,87,49,30.15,30.06,3,0,5,0.07
2013-5-29,79.9,66.6,56.7,73.0,64.1,56.7,100,92,75,30.07,29.90,3,0,7,0.06
2013-5-30,91.0,75.9,60.7,73.4,68.6,60.7,100,81,54,30.02,29.94,2,0,5,0.00
2013-5-31,93.3,77.2,62.7,75.4,68.7,62.7,100,78,45,30.03,29.89,3,0,7,0.00
2013-6-1,89.8,75.6,61.7,75.6,69.2,61.4,100,82,55,29.92,29.81,4,1,8,0.00
2013-6-2,84.6,74.8,65.5,75.4,70.1,65.2,100,86,72,29.82,29.66,3,0,8,0.00
2013-6-3,78.7,70.1,60.9,69.5,65.7,51.8,100,87,68,29.80,29.69,2,0,9,0.62
2013-6-4,72.5,61.8,53.3,53.8,48.8,43.8,89,63,44,30.03,29.80,4,1,13,0.00
2013-6-5,74.9,61.8,47.6,57.4,51.5,45.7,96,71,46,30.13,30.02,2,0,7,0.00
2013-6-6,68.5,58.7,47.6,60.3,54.6,46.8,100,87,66,30.09,29.97,1,0,2,0.18
2013-6-7,60.0,57.2,54.5,60.0,57.2,54.5,100,100,100,29.97,29.64,2,0,3,2.24
2013-6-8,76.6,63.5,52.8,67.2,59.9,52.8,100,89,70,29.97,29.54,5,1,12,0.32
2013-6-9,79.8,67.4,55.5,65.6,60.6,55.2,100,81,54,30.10,29.97,3,0,10,0.00
2013-6-10,70.5,61.9,56.5,66.0,60.7,56.5,100,96,82,30.10,29.83,2,0,3,1.01
2013-6-11,76.7,64.7,59.0,70.8,63.3,59.0,100,95,82,29.83,29.49,4,1,6,0.71
2013-6-12,73.0,64.9,55.0,60.3,57.0,54.0,97,76,57,29.77,29.57,5,2,13,0.00
2013-6-13,57.1,54.6,50.6,57.0,54.5,50.3,100,100,97,29.76,29.51,3,0,5,1.69
2013-6-14,72.7,59.0,51.1,63.1,55.8,50.9,100,90,65,29.77,29.50,4,1,9,0.56
2013-6-15,78.7,65.8,51.7,61.0,56.3,51.7,100,76,45,29.90,29.77,4,1,10,0.00
2013-6-16,77.8,65.2,50.7,66.5,59.6,50.4,100,84,59,29.91,29.66,4,0,10,0.00
2013-6-17,84.6,70.3,57.2,70.7,63.9,57.0,100,82,58,29.84,29.73,4,1,6,0.00
2013-6-18,81.5,66.3,57.6,72.4,63.4,57.3,100,91,70,29.84,29.74,2,0,5,0.53
2013-6-19,75.0,63.5,52.2,58.4,53.8,47.8,100,74,39,30.09,29.82,3,0,7,0.00
2013-6-20,79.8,64.5,47.5,63.9,55.9,47.0,100,76,50,30.19,30.09,3,0,7,0.00
2013-6-21,82.9,68.4,53.5,70.0,61.5,52.9,100,80,60,30.20,30.13,3,1,7,0.00
2013-6-22,83.6,69.9,55.9,68.4,62.1,55.3,99,78,53,30.17,30.05,4,1,9,0.00
2013-6-23,88.8,74.2,59.0,75.6,67.7,58.1,98,82,52,30.10,29.96,4,1,11,0.00
2013-6-24,91.5,76.7,66.9,76.9,71.5,66.8,100,86,60,29.98,29.84,6,1,12,0.33
2013-6-25,89.4,75.1,64.3,77.2,71.2,64.3,100,89,63,29.91,29.69,4,0,11,0.12
2013-6-26,80.0,74.2,68.6,74.0,71.7,68.5,100,92,79,29.75,29.66,3,1,6,0.00
2013-6-27,80.0,71.5,64.9,75.0,70.0,64.9,100,95,83,29.74,29.53,1,0,3,0.45
2013-6-28,81.8,73.2,68.5,75.8,72.0,68.5,100,96,79,29.53,29.39,2,0,5,0.22
2013-6-29,82.6,73.1,66.0,73.4,70.3,66.0,100,91,73,29.63,29.40,4,0,8,0.00
2013-6-30,81.3,74.1,70.8,75.9,72.7,70.5,100,95,82,29.84,29.63,1,0,3,0.16
2013-7-1,74.1,72.3,71.0,74.1,72.3,71.0,100,100,100,29.98,29.84,1,0,6,0.35
2013-7-2,82.2,74.9,71.6,77.1,73.6,71.6,100,96,83,30.09,29.98,2,0,8,0.01
2013-7-3,84.6,76.4,71.0,78.0,73.7,70.5,99,92,77,30.15,30.08,5,1,11,0.00
2013-7-4,89.1,80.0,73.0,79.0,75.9,72.7,100,88,69,30.15,30.05,4,1,16,0.00
2013-7-5,90.6,81.2,72.9,79.5,75.6,72.0,98,84,64,30.11,29.99,3,1,11,0.00
2013-7-6,91.3,81.3,72.8,79.0,75.4,72.3,99,84,64,30.03,29.92,4,1,10,0.00
2013-7-7,92.5,81.3,70.9,80.4,76.3,70.9,100,86,66,29.96,29.81,3,0,8,0.00
2013-7-8,88.5,79.1,69.8,76.1,72.5,68.0,95,81,63,29.94,29.84,4,1,7,0.00
2013-7-9,82.9,74.0,67.1,75.8,71.6,66.8,100,93,74,30.00,29.92,3,0,5,1.50
2013-7-10,82.4,75.4,70.7,79.4,74.5,70.7,100,97,86,29.94,29.72,4,0,7,0.21
2013-7-11,83.3,74.9,68.4,74.8,71.3,66.2,100,89,70,29.85,29.71,1,0,4,0.02
2013-7-12,79.5,71.7,66.2,71.5,65.9,61.1,95,82,74,30.08,29.85,2,0,9,0.01
2013-7-13,76.1,69.8,64.5,74.2,68.4,61.8,100,95,89,30.22,30.08,1,0,5,0.13
2013-7-14,89.3,79.8,72.7,78.8,75.7,72.7,100,88,68,30.24,30.13,3,1,9,0.00
2013-7-15,91.2,81.0,71.5,78.0,74.7,71.5,100,83,57,30.14,30.04,3,0,9,0.00
2013-7-16,92.4,81.6,68.9,75.7,72.2,67.7,97,75,53,30.11,30.03,2,0,5,0.00
2013-7-17,93.5,81.2,68.1,77.8,73.5,67.8,100,79,55,30.11,29.96,2,0,6,0.00
2013-7-18,94.3,83.3,72.3,80.1,76.3,71.5,98,81,61,29.97,29.86,3,0,5,0.00
2013-7-19,94.7,84.2,73.3,81.6,77.7,73.3,100,82,62,29.87,29.67,5,1,10,0.00
2013-7-20,91.1,81.8,71.4,79.9,75.9,69.6,94,83,62,29.76,29.61,4,1,15,0.03
2013-7-21,86.5,75.5,67.7,72.6,68.5,64.0,99,80,51,29.89,29.76,2,0,4,0.03
2013-7-22,80.8,72.9,64.7,75.9,70.8,64.4,100,93,80,29.90,29.75,1,0,3,0.03
2013-7-23,86.3,75.6,71.1,77.4,73.8,71.1,100,95,71,29.75,29.47,4,1,10,1.59
2013-7-24,80.3,73.1,63.4,73.2,68.0,56.8,100,85,68,29.86,29.52,4,1,5,0.00
2013-7-25,64.7,60.8,58.1,60.7,56.7,51.6,98,86,79,30.01,29.86,2,0,6,0.05
2013-7-26,78.7,66.1,60.0,70.3,63.7,59.4,99,93,67,29.98,29.90,3,0,6,0.10
2013-7-27,81.3,70.0,59.8,69.3,65.3,59.6,100,86,63,29.98,29.90,3,0,6,0.00
2013-7-28,78.0,70.4,63.3,71.7,67.5,62.7,100,91,75,29.93,29.85,2,0,4,0.00
2013-7-29,84.7,73.5,63.2,72.8,67.8,59.6,100,84,57,30.00,29.88,4,1,7,0.00
2013-7-30,79.6,68.3,56.1,65.8,61.0,55.4,99,79,56,30.07,30.00,3,1,10,0.00
2013-7-31,80.7,68.8,56.3,68.0,62.3,56.0,100,82,57,30.08,29.96,2,0,4,0.00
2013-8-1,74.2,65.3,59.1,69.5,64.5,59.1,100,97,80,29.97,29.76,0,0,3,0.36
2013-8-2,81.5,71.6,63.2,68.6,66.0,63.2,100,84,58,29.81,29.71,5,1,11,0.74
2013-8-3,78.3,67.5,61.8,70.3,65.2,61.6,100,93,72,29.81,29.74,3,1,6,0.08
2013-8-4,78.3,65.5,54.7,64.1,59.8,54.7,100,83,58,29.87,29.75,4,1,10,0.04
2013-8-5,75.6,64.8,55.8,58.0,54.8,50.2,96,72,46,29.98,29.85,4,1,9,0.00
2013-8-6,78.3,63.8,49.8,64.5,58.0,49.5,100,83,55,30.06,29.98,2,0,3,0.00
2013-8-7,75.0,65.5,54.5,67.0,61.9,54.2,100,89,70,30.10,30.00,1,0,2,0.00
2013-8-8,79.0,72.2,68.4,74.4,70.8,66.9,100,95,83,30.01,29.93,3,0,6,0.02
2013-8-9,78.4,73.6,71.3,77.5,73.4,70.8,100,99,94,29.94,29.70,3,0,7,1.37
2013-8-10,81.5,71.4,59.1,72.3,66.1,57.7,100,85,60,29.97,29.75,4,1,7,0.00
2013-8-11,78.7,66.0,51.9,66.7,59.2,51.5,100,81,57,30.04,29.94,3,0,6,0.00
2013-8-12,81.8,69.2,59.7,67.9,62.9,59.4,100,83,54,29.97,29.84,3,0,9,0.00
2013-8-13,74.9,67.9,62.5,70.2,66.4,62.2,100,95,80,29.86,29.61,2,0,6,0.16
2013-8-14,72.7,63.5,54.2,64.1,57.4,53.9,100,82,61,29.95,29.65,5,1,12,0.00
2013-8-15,75.4,62.6,50.3,61.6,55.8,49.8,100,81,51,30.07,29.95,4,1,9,0.00
2013-8-16,78.0,64.3,50.4,63.1,57.6,50.1,100,81,55,30.13,30.05,3,0,6,0.00
2013-8-17,81.1,66.0,52.5,67.3,60.1,52.2,100,84,52,30.20,30.13,1,0,3,0.00
2013-8-18,76.6,66.3,58.2,67.6,62.6,58.2,100,89,65,30.20,30.04,0,0,3,0.00
2013-8-19,77.6,68.0,57.6,68.2,63.8,57.6,100,88,67,30.05,29.93,3,1,8,0.00
2013-8-20,83.5,70.6,58.9,70.0,64.8,58.9,100,84,57,30.05,29.95,3,1,8,0.00
2013-8-21,86.3,71.5,58.6,71.4,65.7,58.6,100,84,55,30.10,29.97,3,0,5,0.00
2013-8-22,78.4,70.4,62.1,74.2,69.1,62.1,100,96,86,29.98,29.78,3,0,5,0.10
2013-8-23,79.4,71.4,61.2,70.9,63.7,55.8,100,78,55,30.04,29.78,2,1,9,0.00
2013-8-24,78.0,64.2,52.2,60.9,55.7,51.0,97,76,49,30.28,30.04,2,0,6,0.00
2013-8-25,81.7,64.5,49.2,64.6,57.0,48.9,100,80,47,30.32,30.13,3,0,6,0.00
2013-8-26,72.7,66.8,61.1,69.4,64.8,59.3,100,93,83,30.14,29.83,2,0,5,0.20
2013-8-27,83.2,73.1,67.5,74.4,70.4,67.4,100,92,72,29.83,29.73,3,0,6,0.21
2013-8-28,86.1,70.8,62.1,75.7,67.9,62.1,100,92,66,29.83,29.75,4,0,5,1.00
2013-8-29,75.4,69.1,64.7,69.5,67.1,63.2,100,94,79,29.97,29.83,2,0,4,0.00
2013-8-30,82.1,70.6,64.1,73.0,67.5,63.0,100,91,70,29.96,29.77,3,0,7,0.00
2013-8-31,80.9,74.1,68.6,77.0,72.7,68.6,100,96,86,29.77,29.71,3,0,8,0.00
2013-9-1,79.2,74.9,71.7,76.4,73.8,71.7,100,96,90,29.77,29.73,2,0,3,0.00
2013-9-2,77.1,72.8,67.7,75.4,72.3,67.7,100,99,91,29.75,29.60,2,0,4,0.08
2013-9-3,68.3,66.7,64.1,68.3,66.7,64.1,100,100,100,29.70,29.62,1,0,2,0.01
2013-9-4,75.4,75.2,74.9,63.2,62.3,61.4,67,64,62,29.86,29.86,1,1,4,0.00
2013-9-5,72.2,69.3,57.8,60.4,56.5,53.0,100,64,52,29.93,29.85,3,2,9,0.00
2013-9-7,69.2,66.2,62.9,61.0,59.5,56.1,92,80,63,29.98,29.81,2,0,2,0.00
2013-9-8,75.0,63.0,51.3,64.8,54.3,49.3,95,75,52,30.02,29.73,4,0,6,0.00
2013-9-9,69.9,56.7,42.8,56.5,50.4,42.3,99,82,57,30.18,30.02,2,0,6,0.00
2013-9-10,78.8,68.4,58.6,75.2,67.2,56.0,100,96,86,30.09,29.96,4,0,7,0.06
2013-9-11,92.2,77.5,66.8,81.9,73.8,66.8,100,89,70,30.02,29.88,3,0,6,0.01
2013-9-12,83.8,73.4,67.4,77.5,71.6,67.4,100,94,76,29.90,29.60,4,0,9,0.72
2013-9-13,73.8,66.5,57.0,68.2,63.1,53.2,100,89,72,29.74,29.54,3,1,8,0.04
2013-9-14,63.9,56.0,48.5,54.8,51.5,47.7,98,86,68,30.03,29.73,2,1,5,0.00
2013-9-15,69.4,54.4,42.0,56.3,49.3,41.7,100,85,52,30.13,30.01,3,0,5,0.00
2013-9-16,67.2,57.5,50.6,57.7,54.0,46.8,100,89,67,30.18,29.96,3,0,6,0.02
2013-9-17,61.5,50.9,40.8,48.4,43.4,38.7,97,77,54,30.36,30.19,2,0,7,0.00
2013-9-18,71.8,51.9,37.8,54.2,46.2,37.3,100,84,49,30.28,30.11,2,0,6,0.00
2013-9-19,77.3,57.3,42.0,59.2,51.3,41.7,100,84,48,30.12,29.98,2,0,6,0.00
2013-9-20,77.7,59.2,44.7,63.3,54.5,44.4,100,86,52,30.03,29.92,1,0,3,0.00
2013-9-21,70.4,63.1,53.3,68.8,61.8,52.8,100,96,88,29.94,29.59,1,0,3,0.05
2013-9-22,68.7,61.2,50.9,68.0,56.4,45.6,100,85,62,29.82,29.55,3,1,11,0.83
2013-9-23,61.7,50.6,41.1,50.2,45.3,40.4,98,83,62,29.98,29.82,4,0,8,0.00
2013-9-24,69.7,52.7,39.9,49.6,44.9,39.1,98,78,44,29.98,29.79,5,1,9,0.00
2013-9-25,71.3,54.9,41.9,57.6,49.8,41.6,100,85,60,29.88,29.80,2,0,10,0.00
2013-9-26,68.6,57.8,49.7,56.4,54.0,49.0,99,88,64,30.04,29.88,2,0,4,0.00
2013-9-27,61.7,54.0,46.2,55.4,51.5,45.9,100,92,78,30.21,30.04,1,0,6,0.00
2013-9-28,71.2,56.2,44.4,59.4,52.4,44.2,100,89,62,30.26,30.18,1,0,4,0.00
2013-9-29,68.7,54.8,45.2,59.9,51.4,44.9,100,90,60,30.18,30.02,2,0,4,0.00
2013-9-30,72.9,55.3,42.2,58.4,51.1,41.9,100,88,58,30.03,29.89,2,0,3,0.00
2013-10-1,77.6,58.9,44.5,63.0,54.5,44.1,100,88,59,29.93,29.81,3,0,4,0.00
2013-10-2,79.3,62.4,49.0,67.0,58.6,49.0,100,89,63,29.93,29.82,4,1,6,0.00
2013-10-3,75.5,59.8,46.1,59.0,54.4,45.8,100,85,51,30.05,29.93,3,0,5,0.01
2013-10-4,76.9,61.8,53.7,69.6,59.6,53.5,100,93,77,30.00,29.91,2,0,5,0.00
2013-10-5,76.0,65.3,59.3,68.5,62.9,58.4,99,92,77,30.03,29.95,1,0,2,0.00
2013-10-6,64.7,60.4,57.5,64.4,60.4,57.5,100,100,99,30.09,29.99,1,0,1,0.72
2013-10-7,73.0,64.1,56.1,71.0,63.6,54.9,100,98,92,30.00,29.70,4,1,13,0.36
2013-10-8,64.9,54.6,44.9,54.9,48.1,44.1,100,81,50,30.29,29.87,3,0,12,0.00
2013-10-9,61.9,50.3,40.4,51.0,46.3,40.1,99,87,64,30.37,30.26,2,0,12,0.00
2013-10-10,58.0,52.5,45.5,54.2,50.0,44.3,98,91,86,30.26,30.06,1,0,5,0.00
2013-10-11,68.1,59.2,52.3,61.9,55.3,48.6,95,87,79,30.06,29.98,2,0,7,0.00
2013-10-12,68.0,56.2,46.7,59.7,52.9,45.9,98,89,74,30.26,30.05,3,1,13,0.00
2013-10-13,61.0,53.6,44.9,54.3,50.7,44.4,98,90,77,30.34,30.24,2,0,4,0.00
2013-10-14,65.7,50.3,38.3,55.0,47.1,38.0,100,90,63,30.32,30.17,1,0,2,0.00
2013-10-15,69.9,56.3,46.3,58.2,51.5,44.2,100,85,61,30.20,30.06,2,0,4,0.00
2013-10-16,61.3,50.8,44.8,54.0,48.2,43.6,99,91,74,30.07,29.92,1,0,2,0.00
2013-10-19,59.7,56.5,54.8,53.6,50.9,49.0,95,82,68,29.76,29.67,0,0,0,0.08
2013-10-20,61.3,52.1,40.4,54.3,44.8,38.8,99,78,51,29.99,29.64,4,1,10,0.00
2013-10-21,66.2,49.6,34.6,48.9,41.9,34.1,99,78,48,30.07,29.90,3,0,7,0.00
2013-10-22,64.7,51.5,40.1,54.2,47.3,39.6,100,87,63,29.90,29.65,4,0,9,0.00
2013-10-23,52.2,43.7,33.8,41.4,37.5,33.0,98,80,57,29.74,29.54,1,0,4,0.00
2013-10-24,52.7,43.0,33.7,39.9,34.5,32.2,97,74,48,29.88,29.64,5,1,18,0.00
2013-10-25,49.9,40.1,31.4,36.8,32.8,29.3,94,76,57,30.13,29.88,5,1,11,0.00
2013-10-26,53.9,40.9,27.8,37.8,32.7,26.8,98,75,49,30.13,29.80,6,1,14,0.00
2013-10-27,56.8,46.8,34.4,39.4,36.6,31.5,90,69,46,30.03,29.75,4,1,10,0.01
2013-10-28,60.2,43.0,28.6,41.3,35.2,27.6,97,76,49,30.26,30.03,5,1,12,0.00
2013-10-29,52.5,42.1,34.1,35.0,31.5,27.7,88,67,49,30.38,30.27,2,0,6,0.00
2013-10-30,53.2,42.8,33.7,47.2,38.8,30.8,97,86,73,30.30,30.12,2,0,4,0.00
2013-10-31,61.2,49.6,35.0,59.8,48.9,34.5,100,98,94,30.18,29.73,1,0,6,0.18
2013-11-1,66.4,62.0,54.6,63.8,59.1,51.7,100,91,71,29.73,29.43,6,2,11,0.20
2013-11-2,66.0,51.8,41.3,52.5,46.9,41.0,100,85,55,29.70,29.52,3,0,10,0.01
2013-11-3,46.2,41.4,31.0,43.4,35.1,21.3,97,79,59,30.38,29.70,3,1,10,0.00
2013-11-4,43.1,33.7,25.6,25.7,22.5,20.3,85,65,43,30.62,30.38,3,0,6,0.00
2013-11-5,51.9,40.3,28.0,42.0,34.6,25.4,92,81,66,30.63,30.43,2,0,5,0.00
2013-11-6,59.0,49.1,36.0,53.2,45.0,35.1,98,87,69,30.44,29.99,3,0,15,0.00
2013-11-7,61.9,52.7,39.1,58.7,50.6,34.7,99,93,83,29.99,29.64,6,1,11,0.08
2013-11-8,47.4,39.7,30.2,36.6,33.1,27.7,95,78,57,30.09,29.81,5,1,12,0.00
2013-11-9,46.5,38.6,27.8,35.5,31.6,26.3,95,77,58,30.19,29.93,2,0,5,0.00
2013-11-10,56.2,46.3,40.6,43.5,38.9,34.0,90,76,58,29.92,29.69,6,1,13,0.01
2013-11-11,51.8,45.3,36.0,37.1,34.1,30.8,82,65,51,30.09,29.86,5,1,9,0.00
2013-11-12,49.6,35.1,28.3,40.1,26.8,20.7,93,72,61,30.18,29.84,5,1,10,0.03
2013-11-13,36.9,29.8,23.6,21.7,19.6,17.4,78,66,47,30.28,30.16,5,1,14,0.00
2013-11-14,52.7,40.2,28.4,28.0,24.2,21.6,78,55,35,30.16,30.03,4,1,8,0.00
2013-11-15,59.7,41.5,27.9,31.4,27.0,21.4,87,60,30,30.16,30.06,3,0,5,0.00
2013-11-16,61.6,46.6,32.7,42.5,38.1,28.8,96,74,42,30.26,30.15,3,0,7,0.00
2013-11-17,58.4,49.9,36.1,58.4,49.4,35.1,100,98,94,30.22,29.73,1,0,5,0.02
2013-11-18,64.1,57.7,47.9,61.5,47.4,32.5,100,71,46,29.73,29.49,6,2,12,0.03
2013-11-19,47.6,40.2,31.6,34.5,28.6,22.6,72,63,55,30.27,29.65,6,2,14,0.00
2013-11-20,42.5,31.8,22.6,23.5,20.2,17.0,87,64,36,30.57,30.27,2,0,6,0.00
2013-11-21,48.4,34.8,19.5,37.5,28.3,17.6,94,78,52,30.59,30.32,2,0,4,0.00
2013-11-22,50.8,45.6,41.4,49.3,44.1,37.6,100,95,86,30.32,29.78,3,0,4,0.01
2013-11-23,50.9,40.3,29.5,48.7,30.1,15.4,96,68,46,29.94,29.78,6,2,22,0.00
2013-11-24,29.2,23.7,20.6,15.6,9.5,5.5,78,55,41,30.25,29.85,10,4,25,0.00
2013-11-25,34.8,25.9,15.4,19.7,15.1,10.1,80,64,49,30.38,30.24,3,0,6,0.00
2013-11-26,38.9,34.5,31.2,36.2,25.6,18.1,99,71,58,30.26,29.85,1,0,4,0.03
2013-11-27,60.8,45.5,34.7,60.8,44.5,32.0,100,96,83,29.84,29.23,7,2,16,0.37
2013-11-28,34.4,29.0,22.6,31.8,20.1,15.8,90,70,51,30.40,29.56,6,2,15,0.00
2013-11-29,35.3,28.0,21.6,24.4,21.0,17.2,89,75,59,30.67,30.40,3,0,6,0.00
2013-11-30,32.1,25.0,15.6,24.3,16.7,13.2,91,72,47,30.72,30.33,1,0,3,0.00
2013-12-1,46.7,36.8,30.8,40.9,32.8,24.4,96,86,77,30.33,29.95,1,0,2,0.00
2013-12-2,43.2,34.4,28.8,38.9,33.3,28.1,99,96,83,29.95,29.84,0,0,1,0.00
2013-12-3,51.5,35.6,25.7,41.0,32.6,25.0,99,90,65,29.93,29.79,2,0,5,0.01
2013-12-4,51.5,36.6,27.0,41.2,33.2,26.3,98,88,67,30.10,29.93,2,0,6,0.00
2013-12-5,54.2,45.5,38.4,54.2,44.7,36.2,100,97,88,30.10,29.87,1,0,4,0.01
2013-12-6,54.7,44.5,35.1,54.7,43.0,34.3,100,95,80,30.08,29.80,2,0,4,0.28
2013-12-7,37.7,33.6,28.6,33.7,28.9,21.0,97,83,70,30.44,30.02,4,1,7,0.00
2013-12-8,30.9,27.4,20.0,24.6,22.0,18.1,93,80,72,30.54,30.37,1,0,2,0.00
2013-12-9,35.2,31.0,26.7,34.9,30.3,24.5,99,97,87,30.37,29.87,1,0,2,0.01
2013-12-10,34.4,30.0,20.6,34.4,29.5,19.4,100,98,94,30.00,29.75,0,0,0,0.00
2013-12-11,29.2,23.8,17.9,23.4,20.1,15.5,95,86,76,30.20,30.00,3,0,12,0.00
2013-12-12,25.0,19.2,12.0,19.2,13.4,9.1,93,79,62,30.26,30.05,3,0,8,0.00
2013-12-13,32.5,23.2,11.4,21.5,16.1,8.5,89,74,63,30.30,30.00,6,1,14,0.00
2013-12-14,22.5,17.2,14.1,16.7,13.7,11.8,94,86,69,30.49,29.93,1,0,4,0.00
2013-12-15,34.4,28.5,17.8,32.0,26.3,16.4,97,91,79,29.92,29.44,5,1,13,0.00
2013-12-16,29.4,23.4,8.5,24.0,15.5,5.7,88,72,56,30.17,29.70,5,1,16,0.00
2013-12-17,18.7,12.9,3.4,16.5,10.6,0.9,93,91,88,30.19,29.88,1,0,4,0.00
2013-12-18,33.6,27.8,17.9,25.9,23.1,16.0,93,83,73,30.06,29.86,5,1,9,0.00
2013-12-19,44.5,34.0,24.7,32.4,27.1,21.0,92,77,60,30.09,29.92,6,1,10,0.01
2013-12-20,51.8,40.3,29.6,39.0,34.0,27.8,94,79,60,30.05,29.88,3,0,6,0.02
2013-12-21,58.9,45.4,35.6,50.8,41.8,34.0,99,88,74,29.93,29.81,2,0,4,0.00
2013-12-22,64.7,57.4,42.6,62.2,55.9,42.3,100,95,87,29.87,29.71,4,1,10,0.00
2013-12-23,58.5,50.1,36.4,56.3,49.4,32.3,100,97,85,30.06,29.81,3,0,11,0.00
2013-12-24,36.6,32.0,24.3,32.1,23.8,17.1,85,72,55,30.22,30.00,4,1,13,0.01
2013-12-25,26.3,21.4,16.0,18.4,11.6,7.5,78,66,53,30.46,30.22,3,1,10,0.00
2013-12-26,32.1,25.7,20.4,28.8,22.0,14.6,95,86,72,30.39,30.06,3,0,4,0.01
2013-12-27,37.4,25.7,15.0,26.2,21.3,13.6,96,84,61,30.26,30.16,4,0,7,0.00
2013-12-28,49.0,33.1,21.7,33.5,27.1,20.2,95,80,55,30.20,29.98,5,1,11,0.00
2013-12-29,40.3,36.2,30.8,40.0,34.5,28.4,99,94,81,29.99,29.37,3,0,8,0.36
2013-12-30,39.7,30.2,16.5,38.2,25.5,10.4,99,83,66,30.14,29.57,3,1,10,0.01
2013-12-31,28.8,21.2,13.4,23.4,15.3,9.9,90,78,67,30.17,29.97,2,0,6,0.00
2014-1-1,29.4,23.8,16.6,22.0,16.5,12.5,88,74,57,30.32,30.17,4,1,12,0.00
2014-1-2,24.3,17.9,9.0,21.0,15.5,6.7,92,90,87,30.24,29.69,4,1,17,0.00